Terminal Aerodrome Forecast
Issued by NWS Grand Forks, ND

Home | Current Version | Previous Version | Graphics & Text | Print | Product List | Glossary On
Versions: 1 2 3 4 5 6 7 8 9 10 11 12 13 14 15 16 17
000
FTUS43 KFGF 230500
TAFGFK
TAF
KGFK 230525Z 2306/2406 03008KT 3SM -DZ SCT004 OVC011
     FM230900 36010KT 2SM -DZSN OVC004
     FM231100 36013KT 1SM -SN OVC003
     FM231600 34016KT 3SM -SN OVC004
     FM232300 34010KT 4SM BR OVC007=

USA.gov is the U.S. government's official web portal to all federal, state and local government web resources and services.